Terminal Aerodrome Forecast
Issued by NWS

Home | Current Version | Previous Version | Text Only | Print | Product List | Glossary On
Versions: 1 2 3 4 5 6 7 8 9 10 11 12 13 14 15 16 17 18 19 20 21 22
353
FTUS43 KMQT 211137
TAFCMX
TAF
KCMX 211137Z 2112/2212 VRB03KT 3SM BR SKC
      TEMPO 2112/2113 1/4SM FG VV002
     FM211300 VRB05KT 3SM BR SCT008
     FM211500 10008KT P6SM SKC
     FM220000 10011KT P6SM SCT006
     FM220400 12007KT P6SM SCT003 BKN006
     FM220700 14007KT P6SM VCTS BKN006 OVC030CB WS020/21030KT=

USA.gov is the U.S. government's official web portal to all federal, state and local government web resources and services.